Time;durP1;ratioP1;P1;durP2;ratioP2;P2;SDS_P1;SDS_P2;PMS_P1;PMS_P2;Temp;Humidity;BMP_temperature;BMP_pressure;BME280_temperature;BME280_humidity;BME280_pressure;Samples;Min_cycle;Max_cycle;Signal;HPM_P1;HPM_P2
2024/02/01 00:00:44;;;;;;;24.20;11.50;;;;;;;2.02;78.60;100218.45;79507;1299;3013355;-72
2024/02/01 00:03:10;;;;;;;24.90;11.90;;;;;;;1.88;79.27;100224.48;79481;1296;3011668;-72
2024/02/01 00:05:38;;;;;;;25.30;12.70;;;;;;;1.80;79.50;100219.77;78406;1300;3026886;-74
2024/02/01 00:08:05;;;;;;;23.00;11.50;;;;;;;1.67;80.18;100216.45;79440;1295;3013179;-71
2024/02/01 00:10:32;;;;;;;23.50;11.40;;;;;;;1.54;80.96;100209.89;79475;1301;3011543;-73
2024/02/01 00:12:59;;;;;;;24.60;11.90;;;;;;;1.52;80.75;100209.91;78283;1301;3025682;-71
2024/02/01 00:15:26;;;;;;;19.40;8.20;;;;;;;1.43;81.71;100206.04;79508;1299;3013053;-75
2024/02/01 00:17:53;;;;;;;25.60;11.50;;;;;;;2.21;80.58;100201.04;79538;1295;3012943;-67
2024/02/01 00:20:21;;;;;;;23.10;10.10;;;;;;;2.71;78.42;100199.92;78459;1301;3026646;-69
2024/02/01 00:22:47;;;;;;;25.50;11.80;;;;;;;2.73;77.71;100200.59;79497;1295;3013146;-65
2024/02/01 00:25:14;;;;;;;21.30;11.30;;;;;;;2.54;77.49;100192.45;79313;1295;3013169;-68
2024/02/01 00:27:42;;;;;;;29.50;15.00;;;;;;;2.46;77.23;100187.73;78212;1300;3026743;-67
2024/02/01 00:30:09;;;;;;;25.90;13.10;;;;;;;2.04;79.00;100192.48;79332;1301;3013076;-67
2024/02/01 00:32:36;;;;;;;28.30;15.20;;;;;;;1.92;78.63;100187.63;79512;1298;3011747;-71
2024/02/01 00:35:04;;;;;;;18.40;9.80;;;;;;;1.69;79.77;100186.21;78156;1300;3051743;-70
2024/02/01 00:37:31;;;;;;;29.10;13.80;;;;;;;1.65;79.67;100183.48;79348;1295;3013597;-70
2024/02/01 00:40:00;;;;;;;26.30;11.90;;;;;;;1.63;79.74;100178.17;79212;1295;3013292;-66
2024/02/01 00:42:28;;;;;;;28.20;13.90;;;;;;;1.48;80.67;100178.86;78085;1302;3049483;-64
2024/02/01 00:44:55;;;;;;;20.10;10.40;;;;;;;1.58;81.00;100175.64;79311;1301;3013602;-65
2024/02/01 00:47:21;;;;;;;22.60;11.30;;;;;;;2.25;79.53;100172.45;79358;1301;3012926;-68
2024/02/01 00:49:49;;;;;;;23.50;12.80;;;;;;;2.46;77.85;100173.88;78036;1301;3028635;-66
2024/02/01 00:52:16;;;;;;;22.70;11.20;;;;;;;2.29;78.30;100176.21;79659;1300;3012994;-66
2024/02/01 00:54:42;;;;;;;21.30;11.20;;;;;;;2.10;78.22;100177.19;79328;1301;3011940;-64
2024/02/01 00:57:10;;;;;;;27.30;13.50;;;;;;;1.88;79.10;100168.34;78327;1300;3026361;-66
2024/02/01 00:59:37;;;;;;;31.20;14.70;;;;;;;1.53;80.12;100169.14;79525;1301;3018371;-65
2024/02/01 01:02:04;;;;;;;25.30;13.60;;;;;;;1.34;81.40;100167.64;79351;1300;3011803;-65
2024/02/01 01:04:32;;;;;;;28.90;13.30;;;;;;;1.46;80.72;100159.38;78255;1301;3026015;-68
2024/02/01 01:06:58;;;;;;;25.70;13.20;;;;;;;1.29;81.49;100165.10;79436;1301;3012882;-66
2024/02/01 01:09:25;;;;;;;20.90;9.90;;;;;;;1.23;81.70;100155.52;79343;1301;3011603;-64
2024/02/01 01:11:53;;;;;;;23.20;11.50;;;;;;;1.67;81.66;100153.06;78371;1301;3026436;-66
2024/02/01 01:14:20;;;;;;;20.30;10.70;;;;;;;2.36;79.44;100150.17;79551;1295;3018597;-67
2024/02/01 01:16:47;;;;;;;23.30;11.40;;;;;;;2.17;78.84;100154.63;79297;1301;3011647;-65
2024/02/01 01:19:15;;;;;;;25.70;12.50;;;;;;;1.86;79.70;100148.51;78138;1301;3028863;-66
2024/02/01 01:21:41;;;;;;;24.00;11.50;;;;;;;1.67;80.10;100154.64;79362;1297;3013249;-70
2024/02/01 01:24:08;;;;;;;26.00;13.00;;;;;;;1.57;80.38;100154.23;79521;1301;3011904;-69
2024/02/01 01:26:36;;;;;;;25.40;12.20;;;;;;;1.41;80.69;100143.73;78249;1300;3028882;-72
2024/02/01 01:29:02;;;;;;;23.30;12.40;;;;;;;1.33;81.12;100148.15;79637;1301;3012898;-65
2024/02/01 01:31:29;;;;;;;24.10;12.40;;;;;;;1.26;81.45;100143.06;79296;1302;3013772;-68
2024/02/01 01:33:57;;;;;;;19.50;9.40;;;;;;;1.22;81.62;100150.00;78158;1301;3027741;-67
2024/02/01 01:36:24;;;;;;;20.30;9.00;;;;;;;1.10;82.41;100140.82;79393;1301;3018386;-65
2024/02/01 01:38:50;;;;;;;26.20;12.00;;;;;;;1.89;81.24;100133.93;79512;1301;3011521;-68
2024/02/01 01:41:18;;;;;;;23.00;11.40;;;;;;;2.29;79.29;100127.30;78353;1301;3026357;-66
2024/02/01 01:43:44;;;;;;;25.00;12.50;;;;;;;2.27;78.39;100118.16;79606;1301;3013632;-66
2024/02/01 01:46:12;;;;;;;25.80;12.40;;;;;;;2.08;78.78;100121.91;79248;1301;3011650;-65
2024/02/01 01:48:40;;;;;;;24.80;12.80;;;;;;;1.87;79.12;100118.95;78120;1301;3051581;-67
2024/02/01 01:51:06;;;;;;;24.70;11.70;;;;;;;1.71;79.29;100126.95;79392;1301;3012878;-65
2024/02/01 01:53:33;;;;;;;21.80;10.50;;;;;;;1.43;79.88;100120.23;79338;1296;3013458;-67
2024/02/01 01:56:01;;;;;;;20.90;10.70;;;;;;;1.32;80.50;100120.71;78014;1301;3028694;-67
2024/02/01 01:58:28;;;;;;;20.20;10.70;;;;;;;1.23;80.97;100114.61;79262;1300;3012879;-66
2024/02/01 02:00:55;;;;;;;23.20;12.20;;;;;;;1.06;81.49;100108.41;79414;1301;3011706;-67
2024/02/01 02:03:28;;;;;;;21.50;10.70;;;;;;;1.01;82.21;100109.69;78172;1300;3028706;-66
2024/02/01 02:05:55;;;;;;;13.70;7.50;;;;;;;1.52;81.59;100103.36;79429;1301;3011666;-65
2024/02/01 02:08:23;;;;;;;20.60;11.20;;;;;;;2.09;79.55;100106.18;78311;1296;3048501;-67
2024/02/01 02:10:50;;;;;;;20.30;10.80;;;;;;;1.75;79.42;100092.34;79502;1301;3013757;-66
2024/02/01 02:13:16;;;;;;;19.50;9.80;;;;;;;1.53;80.35;100097.65;79291;1301;3011552;-67
2024/02/01 02:15:44;;;;;;;23.30;11.40;;;;;;;1.70;79.44;100095.17;78252;1301;3026937;-66
2024/02/01 02:18:11;;;;;;;18.30;10.90;;;;;;;1.49;79.69;100096.50;79541;1301;3012827;-66
2024/02/01 02:20:42;;;;;;;22.10;11.70;;;;;;;1.30;80.25;100094.84;79504;1300;3011690;-66
2024/02/01 02:23:12;;;;;;;22.40;11.00;;;;;;;1.03;81.51;100086.20;78100;1309;3049059;-69
2024/02/01 02:25:39;;;;;;;22.30;11.50;;;;;;;1.04;81.30;100082.73;79278;1296;3013463;-70
2024/02/01 02:28:08;;;;;;;25.20;12.20;;;;;;;1.02;81.13;100085.34;78969;1301;3011718;-69
2024/02/01 02:30:37;;;;;;;24.60;12.00;;;;;;;0.84;82.09;100078.83;79320;1309;3018471;-66
2024/02/01 02:33:04;;;;;;;18.20;9.70;;;;;;;0.89;82.30;100075.14;79342;1296;3011839;-66
2024/02/01 02:35:32;;;;;;;25.10;11.80;;;;;;;1.76;80.82;100069.35;78041;1296;3051023;-65
2024/02/01 02:37:58;;;;;;;29.10;12.80;;;;;;;2.29;78.77;100073.54;79296;1299;3013184;-67
2024/02/01 02:40:25;;;;;;;23.70;11.70;;;;;;;1.90;78.52;100068.12;79252;1301;3011870;-66
2024/02/01 02:42:53;;;;;;;20.50;12.10;;;;;;;1.75;79.10;100071.27;78084;1301;3027348;-64
2024/02/01 02:45:19;;;;;;;23.70;13.60;;;;;;;1.59;79.45;100067.02;79291;1298;3018512;-66
2024/02/01 02:47:46;;;;;;;25.40;12.50;;;;;;;1.42;79.65;100066.73;79394;1309;3011854;-66
2024/02/01 02:50:14;;;;;;;24.40;13.00;;;;;;;1.22;80.19;100067.67;78258;1301;3028335;-66
2024/02/01 02:52:43;;;;;;;21.00;11.50;;;;;;;1.12;80.69;100065.90;79837;1292;3013470;-66
2024/02/01 02:55:09;;;;;;;28.40;14.50;;;;;;;0.89;81.72;100060.48;79719;1292;3011766;-66
2024/02/01 02:57:38;;;;;;;24.80;13.60;;;;;;;0.88;82.17;100061.70;78534;1298;3050283;-66
2024/02/01 03:00:05;;;;;;;21.60;11.10;;;;;;;0.95;82.06;100065.58;79550;1298;3014655;-65
2024/02/01 03:02:32;;;;;;;23.10;11.00;;;;;;;1.62;80.92;100060.22;79551;1297;3013049;-67
2024/02/01 03:05:01;;;;;;;21.50;11.10;;;;;;;2.10;79.27;100061.91;78584;1298;3050785;-67
2024/02/01 03:07:27;;;;;;;23.60;12.10;;;;;;;1.95;78.49;100055.77;79525;1296;3018967;-64
2024/02/01 03:09:54;;;;;;;18.90;10.10;;;;;;;1.77;78.68;100058.13;79588;1298;3011444;-66
2024/02/01 03:12:22;;;;;;;23.30;11.80;;;;;;;1.70;78.79;100054.77;78287;1298;3025926;-65
2024/02/01 03:14:49;;;;;;;19.60;10.70;;;;;;;1.43;79.32;100055.16;79546;1302;3020673;-64
2024/02/01 03:17:18;;;;;;;25.90;12.40;;;;;;;1.26;80.05;100055.89;79538;1298;3011848;-65
2024/02/01 03:19:50;;;;;;;24.40;11.70;;;;;;;1.04;80.83;100046.16;78011;1295;3050576;-65
2024/02/01 03:22:20;;;;;;;22.50;11.90;;;;;;;1.05;80.96;100052.35;79240;1292;3011875;-66
2024/02/01 03:24:58;;;;;;;27.30;12.80;;;;;;;0.96;81.61;100049.70;78223;1296;3049231;-62
2024/02/01 03:27:26;;;;;;;27.30;13.00;;;;;;;0.81;81.98;100043.84;78340;1293;3054468;-63
2024/02/01 03:29:53;;;;;;;19.50;10.50;;;;;;;0.94;81.43;100038.86;79538;1298;3013534;-63
2024/02/01 03:32:19;;;;;;;30.90;14.10;;;;;;;1.50;81.68;100031.04;79546;1298;3011580;-66
2024/02/01 03:34:47;;;;;;;25.00;12.50;;;;;;;2.31;78.87;100031.65;78329;1297;3026707;-64
2024/02/01 03:37:14;;;;;;;22.40;13.00;;;;;;;2.28;77.54;100033.80;79574;1297;3012854;-66
2024/02/01 03:39:41;;;;;;;24.40;11.60;;;;;;;1.90;78.26;100025.96;79509;1292;3013096;-62
2024/02/01 03:42:09;;;;;;;24.30;12.20;;;;;;;1.69;78.77;100021.27;78400;1298;3054895;-64
2024/02/01 03:44:39;;;;;;;24.20;11.80;;;;;;;1.47;79.01;100021.08;79620;1314;3018460;-67
2024/02/01 03:47:10;;;;;;;22.60;12.10;;;;;;;1.33;79.82;100016.44;79005;1298;3011844;-62
2024/02/01 03:49:39;;;;;;;23.60;12.20;;;;;;;1.08;80.39;100010.56;79572;1299;3011634;-69
2024/02/01 03:52:10;;;;;;;24.90;12.30;;;;;;;0.95;81.02;100009.70;78322;1298;3069263;-67
2024/02/01 03:54:39;;;;;;;21.20;10.90;;;;;;;0.83;81.76;100005.86;79493;1292;3011433;-68
2024/02/01 03:57:09;;;;;;;23.10;12.20;;;;;;;0.70;82.31;100005.16;78302;1295;3055258;-67
2024/02/01 03:59:35;;;;;;;20.10;8.70;;;;;;;0.68;82.95;100005.89;79956;1294;3013696;-68
2024/02/01 04:02:08;;;;;;;24.00;11.60;;;;;;;1.11;83.03;100000.33;79529;1294;3011841;-67
2024/02/01 04:04:37;;;;;;;30.40;14.40;;;;;;;1.91;81.21;99998.95;78383;1298;3051881;-71
2024/02/01 04:07:04;;;;;;;28.10;13.20;;;;;;;1.63;79.88;99995.63;79655;1297;3012866;-66
2024/02/01 04:09:30;;;;;;;37.10;17.00;;;;;;;1.50;79.84;99991.69;79707;1294;3011536;-70
2024/02/01 04:11:58;;;;;;;34.00;16.30;;;;;;;1.17;80.55;99989.57;78535;1295;3055723;-65
2024/02/01 04:14:25;;;;;;;35.60;15.20;;;;;;;0.99;81.67;99995.32;79518;1295;3018774;-71
2024/02/01 04:16:52;;;;;;;32.00;15.20;;;;;;;0.95;81.97;99999.68;79772;1295;3013240;-66
2024/02/01 04:19:20;;;;;;;40.30;18.30;;;;;;;1.06;81.45;100007.31;78363;1295;3052005;-63
2024/02/01 04:21:47;;;;;;;47.40;20.20;;;;;;;0.93;81.73;100005.23;79537;1298;3012879;-71
2024/02/01 04:24:14;;;;;;;40.40;17.20;;;;;;;0.79;82.26;100002.48;79628;1298;3011611;-69
2024/02/01 04:26:42;;;;;;;23.70;10.90;;;;;;;0.79;82.30;100003.69;78269;1297;3029088;-68
2024/02/01 04:29:10;;;;;;;35.90;15.70;;;;;;;1.38;82.43;99995.49;79569;1293;3013954;-72
2024/02/01 04:31:36;;;;;;;37.10;16.40;;;;;;;1.68;80.49;99993.65;79545;1293;3011611;-67
2024/02/01 04:34:04;;;;;;;36.60;17.70;;;;;;;1.87;80.07;99995.77;78376;1295;3052585;-66
2024/02/01 04:36:31;;;;;;;34.90;18.90;;;;;;;1.95;79.40;100002.37;79553;1295;3012940;-70
2024/02/01 04:38:57;;;;;;;32.40;16.60;;;;;;;1.58;79.39;99999.34;79676;1293;3011478;-70
2024/02/01 04:41:26;;;;;;;31.10;16.70;;;;;;;1.42;79.85;99996.64;78590;1295;3026420;-70
2024/02/01 04:43:55;;;;;;;34.10;17.90;;;;;;;1.20;80.75;99996.60;79870;1293;3011831;-68
2024/02/01 04:46:24;;;;;;;34.20;19.00;;;;;;;0.97;81.37;99995.36;79824;1296;3013283;-65
2024/02/01 04:48:52;;;;;;;43.60;21.80;;;;;;;0.81;82.47;99988.48;78563;1298;3051663;-66
2024/02/01 04:51:19;;;;;;;35.20;19.40;;;;;;;0.60;83.43;99986.65;79744;1297;3012847;-67
2024/02/01 04:53:45;;;;;;;34.80;18.80;;;;;;;0.73;82.86;99991.16;79478;1297;3011675;-68
2024/02/01 04:56:13;;;;;;;28.60;13.30;;;;;;;0.72;82.89;99990.14;78396;1298;3029023;-70
2024/02/01 04:58:41;;;;;;;23.80;12.80;;;;;;;1.34;82.72;99990.52;79945;1293;3018440;-70
2024/02/01 05:01:09;;;;;;;25.30;14.50;;;;;;;1.88;80.45;99988.15;79606;1299;3012123;-69
2024/02/01 05:03:37;;;;;;;29.10;15.10;;;;;;;1.84;79.67;99988.03;78394;1297;3052977;-67
2024/02/01 05:06:07;;;;;;;36.90;18.80;;;;;;;1.79;80.09;99991.05;79735;1297;3013083;-68
2024/02/01 05:08:37;;;;;;;34.30;17.70;;;;;;;1.59;79.69;99986.20;79112;1295;3011787;-68
2024/02/01 05:11:04;;;;;;;39.60;17.90;;;;;;;1.26;80.72;99980.46;79875;1293;3018054;-68
2024/02/01 05:13:31;;;;;;;37.70;17.40;;;;;;;1.25;80.77;99978.23;79774;1295;3011753;-71
2024/02/01 05:15:59;;;;;;;38.30;18.50;;;;;;;1.01;81.14;99975.98;78705;1298;3052604;-72
2024/02/01 05:18:26;;;;;;;37.50;17.50;;;;;;;0.69;83.40;99977.58;79800;1298;3013865;-69
2024/02/01 05:20:53;;;;;;;37.90;17.70;;;;;;;0.60;83.70;99973.89;80003;1298;3013368;-65
2024/02/01 05:23:21;;;;;;;38.40;19.40;;;;;;;0.63;83.60;99969.39;78598;1295;3069663;-67
2024/02/01 05:25:48;;;;;;;31.80;15.60;;;;;;;0.65;84.28;99977.30;79869;1292;3016152;-69
2024/02/01 05:28:15;;;;;;;36.20;16.80;;;;;;;1.30;82.85;99980.23;79628;1293;3011697;-65
2024/02/01 05:30:42;;;;;;;30.30;15.60;;;;;;;1.90;80.79;99979.14;78509;1293;3053351;-72
2024/02/01 05:33:09;;;;;;;31.60;15.90;;;;;;;1.68;80.71;99976.38;79520;1295;3013486;-67
2024/02/01 05:35:36;;;;;;;34.80;17.90;;;;;;;1.58;80.44;99977.58;80008;1298;3011753;-70
2024/02/01 05:38:06;;;;;;;37.60;16.90;;;;;;;1.40;81.22;99976.98;78611;1298;3028894;-71
2024/02/01 05:40:33;;;;;;;46.80;20.40;;;;;;;1.29;81.59;99978.35;79735;1298;3011616;-64
2024/02/01 05:43:01;;;;;;;42.30;19.70;;;;;;;1.10;81.90;99977.94;79572;1298;3011791;-67
2024/02/01 05:45:29;;;;;;;42.60;19.10;;;;;;;0.99;82.22;99966.35;78320;1292;3053347;-69
2024/02/01 05:47:56;;;;;;;46.60;19.00;;;;;;;0.66;83.77;99969.17;79797;1298;3011460;-68
2024/02/01 05:50:22;;;;;;;39.00;18.00;;;;;;;0.73;83.73;99961.33;79827;1295;3011891;-69
2024/02/01 05:52:51;;;;;;;38.10;17.60;;;;;;;0.61;84.27;99960.10;78460;1298;3069365;-66
2024/02/01 05:55:17;;;;;;;26.70;13.90;;;;;;;0.56;84.89;99956.53;79619;1292;3013153;-68
2024/02/01 05:57:44;;;;;;;37.70;16.90;;;;;;;1.48;83.69;99955.96;79670;1293;3011593;-64
2024/02/01 06:00:19;;;;;;;42.90;17.00;;;;;;;2.00;80.85;99951.83;78453;1292;3027261;-67
2024/02/01 06:02:49;;;;;;;36.40;16.00;;;;;;;2.01;80.06;99950.77;79203;1297;3011652;-70
2024/02/01 06:05:18;;;;;;;43.50;19.30;;;;;;;1.88;79.93;99951.35;79422;1292;3013115;-70
2024/02/01 06:07:46;;;;;;;60.60;22.20;;;;;;;1.67;80.08;99941.15;78593;1293;3051665;-63
2024/02/01 06:10:13;;;;;;;61.00;23.30;;;;;;;1.45;80.65;99932.73;79929;1293;3013080;-70
2024/02/01 06:12:40;;;;;;;65.60;23.40;;;;;;;1.07;82.42;99933.61;79894;1295;3011463;-71
2024/02/01 06:15:11;;;;;;;48.10;21.30;;;;;;;1.03;82.89;99935.75;78442;1295;3026657;-70
2024/02/01 06:17:37;;;;;;;51.30;20.00;;;;;;;0.96;82.99;99935.85;79638;1295;3012896;-71
2024/02/01 06:20:09;;;;;;;35.20;17.60;;;;;;;0.83;84.06;99926.03;79405;1295;3013061;-70
2024/02/01 06:22:36;;;;;;;32.70;15.80;;;;;;;0.80;84.40;99914.67;79751;1294;3011512;-71
2024/02/01 06:25:05;;;;;;;34.40;18.00;;;;;;;0.90;83.67;99908.67;78526;1298;3027724;-66
2024/02/01 06:27:32;;;;;;;26.40;12.60;;;;;;;0.81;84.80;99913.13;79766;1294;3013392;-65
2024/02/01 06:30:00;;;;;;;18.00;10.50;;;;;;;1.40;83.57;99917.94;79533;1292;3012770;-67
2024/02/01 06:32:28;;;;;;;29.10;16.60;;;;;;;2.11;80.40;99909.65;78286;1296;3049501;-67
2024/02/01 06:34:58;;;;;;;37.40;17.70;;;;;;;2.04;80.09;99901.66;79523;1295;3013229;-68
2024/02/01 06:37:28;;;;;;;31.00;17.90;;;;;;;1.76;80.63;99911.83;78553;1297;3052985;-64
2024/02/01 06:42:54;;;;;;;35.70;19.00;;;;;;;1.64;80.46;99903.74;78730;1297;3069551;-69
2024/02/01 06:45:28;;;;;;;35.50;18.20;;;;;;;1.54;80.78;99902.36;78470;1298;3051779;-69
2024/02/01 06:48:08;;;;;;;29.30;14.90;;;;;;;1.39;80.95;99907.08;79844;1295;3011610;-66
2024/02/01 06:50:54;;;;;;;32.40;16.60;;;;;;;1.16;82.08;99910.20;78532;1297;3049547;-65
2024/02/01 06:53:23;;;;;;;34.20;18.20;;;;;;;0.96;82.93;99902.73;78467;1296;3053762;-67
2024/02/01 06:56:06;;;;;;;31.50;15.30;;;;;;;1.07;82.73;99900.33;79657;1292;3012726;-65
2024/02/01 06:58:47;;;;;;;;;;;;;;;0.79;84.80;99897.27;78536;1297;3053962;-67
2024/02/01 07:01:33;;;;;;;26.60;15.70;;;;;;;1.87;83.86;99898.45;78600;1295;3053698;-67
2024/02/01 07:04:21;;;;;;;28.80;13.90;;;;;;;2.19;80.28;99888.06;78470;1296;3068233;-69
2024/02/01 07:09:46;;;;;;;37.00;19.30;;;;;;;2.04;80.21;99880.39;78628;1298;3056934;-69
2024/02/01 07:12:39;;;;;;;39.80;21.20;;;;;;;1.81;80.47;99879.44;78495;1294;3049710;-66
2024/02/01 07:15:30;;;;;;;37.00;19.30;;;;;;;1.69;81.26;99863.42;78538;1297;3053927;-70
2024/02/01 07:18:19;;;;;;;33.20;17.70;;;;;;;1.37;82.57;99861.55;78613;1296;3049787;-68
2024/02/01 07:20:50;;;;;;;29.80;14.90;;;;;;;1.30;83.09;99858.21;78406;1297;3051428;-70
2024/02/01 07:26:02;;;;;;;32.70;16.20;;;;;;;1.22;83.57;99855.05;78802;1295;3068885;-72
2024/02/01 07:59:10;;;;;;;31.30;17.00;;;;;;;1.39;84.15;99850.11;78392;1297;3052651;-66
2024/02/01 08:02:01;;;;;;;29.40;16.70;;;;;;;1.28;84.50;99849.78;79082;1298;3014089;-66
2024/02/01 08:07:44;;;;;;;30.40;16.00;;;;;;;1.28;85.21;99848.94;78402;1292;3049837;-64
2024/02/01 08:10:01;;;;;;;31.90;17.40;;;;;;;2.62;81.42;99837.89;78589;1296;3052713;-67
2024/02/01 08:12:33;;;;;;;42.90;18.20;;;;;;;2.70;79.90;99838.23;79679;1298;3013229;-71
2024/02/01 08:15:01;;;;;;;37.90;18.60;;;;;;;2.41;80.20;99844.21;78750;1292;3057349;-68
2024/02/01 08:17:27;;;;;;;29.80;14.10;;;;;;;2.04;81.54;99838.41;79672;1292;3019017;-67
2024/02/01 08:19:54;;;;;;;32.20;17.60;;;;;;;2.03;81.40;99838.59;79816;1293;3011813;-71
2024/02/01 08:22:22;;;;;;;39.50;20.10;;;;;;;2.10;81.10;99837.59;78521;1297;3028937;-70
2024/02/01 08:24:54;;;;;;;40.50;18.40;;;;;;;1.87;82.02;99852.38;79900;1296;3013642;-70
2024/02/01 08:27:22;;;;;;;45.90;22.90;;;;;;;1.78;82.32;99841.30;78475;1297;3051499;-64
2024/02/01 08:29:49;;;;;;;44.70;22.60;;;;;;;1.66;83.46;99838.61;79677;1292;3014939;-69
2024/02/01 08:32:19;;;;;;;40.80;19.10;;;;;;;1.63;84.09;99831.23;79886;1298;3011727;-71
2024/02/01 08:34:48;;;;;;;37.40;20.60;;;;;;;2.15;83.42;99820.55;78548;1294;3050132;-66
2024/02/01 08:37:14;;;;;;;39.00;20.30;;;;;;;2.88;80.67;99819.83;79899;1293;3013309;-73
2024/02/01 08:39:45;;;;;;;29.20;14.10;;;;;;;2.95;79.44;99811.54;79838;1297;3013058;-72
2024/02/01 08:42:13;;;;;;;34.40;19.20;;;;;;;2.94;78.39;99819.52;78631;1293;3052938;-67
2024/02/01 08:44:40;;;;;;;46.10;22.10;;;;;;;2.79;79.57;99822.83;79853;1295;3018586;-66
2024/02/01 08:47:06;;;;;;;43.50;21.80;;;;;;;2.82;79.12;99824.98;79790;1295;3011928;-65
2024/02/01 08:49:39;;;;;;;45.90;21.80;;;;;;;2.45;80.55;99815.27;78444;1298;3026143;-70
2024/02/01 08:52:06;;;;;;;38.00;19.20;;;;;;;2.46;80.94;99820.93;79537;1296;3011896;-67
2024/02/01 08:54:36;;;;;;;46.90;20.40;;;;;;;2.54;80.61;99816.98;78599;1297;3028378;-71
2024/02/01 08:57:04;;;;;;;47.20;22.90;;;;;;;2.69;80.44;99811.44;79724;1295;3011525;-70
2024/02/01 08:59:33;;;;;;;45.60;17.80;;;;;;;2.72;80.38;99814.84;79307;1297;3011617;-69
2024/02/01 09:01:59;;;;;;;44.40;20.40;;;;;;;2.84;81.61;99801.40;79598;1297;3014853;-66
2024/02/01 09:04:27;;;;;;;38.80;19.70;;;;;;;3.74;79.24;99795.86;79556;1298;3011883;-71
2024/02/01 09:06:54;;;;;;;40.60;20.60;;;;;;;4.10;77.32;99797.11;78378;1293;3026449;-65
2024/02/01 09:09:30;;;;;;;35.70;19.10;;;;;;;3.88;77.29;99790.97;79453;1298;3020596;-71
2024/02/01 09:12:17;;;;;;;37.20;18.80;;;;;;;3.93;77.36;99782.34;79246;1294;3068269;31
2024/02/01 09:14:45;;;;;;;40.70;19.40;;;;;;;3.58;78.43;99796.29;79466;1300;3052097;-71
2024/02/01 09:17:12;;;;;;;32.00;16.10;;;;;;;3.67;78.46;99791.71;79674;1300;3012714;-75
2024/02/01 09:19:38;;;;;;;43.80;18.10;;;;;;;3.53;78.42;99784.83;79187;1300;3011688;-68
2024/02/01 09:22:08;;;;;;;48.10;20.90;;;;;;;3.41;79.19;99784.95;77732;1300;3049503;-66
2024/02/01 09:24:34;;;;;;;54.20;22.70;;;;;;;3.32;79.82;99763.52;78951;1303;3011711;-71
2024/02/01 09:27:01;;;;;;;45.70;21.60;;;;;;;3.39;79.83;99770.79;79274;1300;3011680;-67
2024/02/01 09:29:34;;;;;;;54.80;22.30;;;;;;;3.23;80.78;99767.92;77700;1316;3051438;-72
2024/02/01 09:32:01;;;;;;;36.20;17.70;;;;;;;3.27;80.85;99762.10;79088;1299;3013377;-67
2024/02/01 09:34:30;;;;;;;41.80;18.40;;;;;;;3.87;79.57;99753.02;77762;1303;3050370;-73
2024/02/01 09:36:56;;;;;;;45.10;20.60;;;;;;;4.41;77.44;99748.69;79140;1301;3014622;-69
2024/02/01 09:39:23;;;;;;;37.30;19.60;;;;;;;4.72;76.05;99744.75;78994;1300;3011648;-69
2024/02/01 09:41:52;;;;;;;33.20;17.60;;;;;;;4.54;75.95;99745.34;77979;1303;3052235;-69
2024/02/01 09:44:19;;;;;;;30.80;16.90;;;;;;;4.44;76.37;99747.39;78986;1303;3011657;-69
2024/02/01 09:46:45;;;;;;;36.50;17.60;;;;;;;4.28;76.77;99736.41;78937;1300;3013228;-70
2024/02/01 09:49:13;;;;;;;27.10;14.30;;;;;;;4.11;77.61;99742.46;77949;1300;3049789;-68
2024/02/01 09:51:40;;;;;;;33.30;18.30;;;;;;;4.17;77.56;99729.47;79178;1300;3019055;-70
2024/02/01 09:54:11;;;;;;;41.00;20.10;;;;;;;4.07;78.15;99733.40;79334;1303;3011612;-65
2024/02/01 09:56:40;;;;;;;27.90;16.00;;;;;;;4.11;78.43;99734.69;78146;1303;3052825;-70
2024/02/01 09:59:06;;;;;;;43.40;21.90;;;;;;;4.16;77.82;99731.58;79329;1305;3013179;-66
2024/02/01 10:01:33;;;;;;;34.90;19.70;;;;;;;3.91;78.90;99727.98;79067;1301;3011543;-68
2024/02/01 10:04:09;;;;;;;34.80;17.70;;;;;;;3.87;78.99;99740.20;77791;1301;3049614;-66
2024/02/01 10:06:38;;;;;;;29.60;15.70;;;;;;;3.73;79.78;99734.02;77761;1304;3053356;-65
2024/02/01 10:09:21;;;;;;;33.40;18.90;;;;;;;3.65;79.87;99732.52;79516;1305;3013163;-69
2024/02/01 10:11:50;;;;;;;31.70;16.60;;;;;;;3.67;80.07;99728.48;77758;1306;3052846;-65
2024/02/01 10:14:16;;;;;;;30.20;17.00;;;;;;;4.25;79.30;99734.95;79334;1303;3014050;-70
2024/02/01 10:16:43;;;;;;;33.50;18.50;;;;;;;4.93;77.27;99735.05;78964;1300;3011659;-68
2024/02/01 10:19:13;;;;;;;36.50;19.90;;;;;;;4.59;76.36;99727.66;78129;1303;3056627;-70
2024/02/01 10:21:39;;;;;;;38.80;20.40;;;;;;;4.33;77.53;99726.70;79302;1300;3011853;-65
2024/02/01 10:24:06;;;;;;;39.10;20.60;;;;;;;4.35;77.53;99722.14;79186;1301;3012375;-68
2024/02/01 10:26:34;;;;;;;32.30;18.50;;;;;;;4.18;78.12;99718.52;78077;1306;3052414;-66
2024/02/01 10:29:01;;;;;;;41.00;19.10;;;;;;;4.15;77.99;99717.03;79222;1300;3014089;-69
2024/02/01 10:31:28;;;;;;;36.20;17.10;;;;;;;3.95;78.62;99713.98;79176;1306;3011470;-71
2024/02/01 10:33:55;;;;;;;36.80;19.70;;;;;;;3.93;78.71;99703.84;77681;1305;3026786;-68
2024/02/01 10:36:22;;;;;;;37.80;20.90;;;;;;;3.79;79.79;99695.06;79126;1301;3013473;-66
2024/02/01 10:38:50;;;;;;;48.50;24.60;;;;;;;3.83;79.57;99694.95;78935;1300;3011978;-65
2024/02/01 10:41:26;;;;;;;37.80;19.70;;;;;;;3.61;80.66;99688.46;78145;1303;3051838;-67
2024/02/01 10:43:53;;;;;;;41.10;21.60;;;;;;;3.62;80.56;99691.73;78052;1305;3052125;-72
2024/02/01 10:46:27;;;;;;;36.10;19.90;;;;;;;3.58;81.08;99676.24;79343;1300;3018463;-70
2024/02/01 10:49:21;;;;;;;33.70;17.00;;;;;;;3.48;81.80;99676.34;77747;1303;3056865;-71
2024/02/01 10:51:50;;;;;;;36.30;20.50;;;;;;;4.28;79.96;99677.12;78004;1300;3050177;-69
2024/02/01 10:54:18;;;;;;;37.90;18.80;;;;;;;4.93;77.84;99680.71;79331;1300;3012838;-67
2024/02/01 10:56:45;;;;;;;37.90;19.30;;;;;;;5.06;75.75;99685.50;79390;1301;3011476;-70
2024/02/01 10:59:15;;;;;;;39.00;19.70;;;;;;;4.69;76.44;99687.08;78007;1306;3052113;-66
2024/02/01 11:01:42;;;;;;;33.60;19.00;;;;;;;4.61;76.78;99688.37;79372;1306;3013389;-66
2024/02/01 11:04:13;;;;;;;36.90;18.90;;;;;;;4.51;76.78;99684.71;78586;1301;3013211;-74
2024/02/01 11:06:47;;;;;;;36.90;19.30;;;;;;;4.32;77.78;99683.92;79217;1301;3013300;-67
2024/02/01 11:09:21;;;;;;;33.80;18.10;;;;;;;4.28;78.22;99680.92;78149;1300;3049544;-69
2024/02/01 11:11:49;;;;;;;35.90;18.30;;;;;;;4.30;77.79;99681.36;79271;1300;3013317;-68
2024/02/01 11:14:23;;;;;;;41.40;20.30;;;;;;;4.25;78.07;99680.69;78235;1304;3049489;-72
2024/02/01 11:16:56;;;;;;;35.10;17.00;;;;;;;4.24;78.33;99681.76;79375;1299;3013245;-69
2024/02/01 11:19:25;;;;;;;40.10;19.70;;;;;;;4.18;78.81;99682.62;78033;1301;3051407;-74
2024/02/01 11:21:57;;;;;;;35.10;18.90;;;;;;;4.06;79.22;99672.41;79234;1303;3013914;-70
2024/02/01 11:24:29;;;;;;;36.50;17.90;;;;;;;3.91;80.23;99671.30;78080;1300;3055030;-70
2024/02/01 11:26:59;;;;;;;31.60;15.00;;;;;;;3.92;80.59;99673.17;79376;1299;3013229;-67
2024/02/01 11:29:33;;;;;;;31.80;16.10;;;;;;;4.58;79.57;99667.31;78280;1300;3053230;-70
2024/02/01 11:32:03;;;;;;;36.50;19.50;;;;;;;5.31;76.70;99658.02;79492;1303;3011928;-67
2024/02/01 11:34:33;;;;;;;32.10;17.70;;;;;;;5.10;76.28;99653.58;78264;1306;3052558;-72
2024/02/01 11:37:05;;;;;;;39.80;19.60;;;;;;;5.29;76.16;99646.50;79439;1303;3013261;-68
2024/02/01 11:39:34;;;;;;;42.50;21.10;;;;;;;5.17;75.62;99647.76;77964;1300;3069172;-68
2024/02/01 11:42:00;;;;;;;42.30;21.40;;;;;;;4.82;77.06;99637.88;79255;1300;3013365;-68
2024/02/01 11:44:27;;;;;;;41.00;19.50;;;;;;;4.86;77.26;99640.02;79375;1300;3013275;-68
2024/02/01 11:46:56;;;;;;;40.20;21.20;;;;;;;4.98;76.91;99636.27;78359;1303;3053858;-73
2024/02/01 11:49:25;;;;;;;39.80;19.90;;;;;;;5.10;76.45;99635.02;79754;1305;3013256;-72
2024/02/01 11:52:15;;;;;;;41.10;21.00;;;;;;;5.22;76.06;99630.05;79173;1300;3011714;-66
2024/02/01 11:54:46;;;;;;;40.50;21.20;;;;;;;5.15;76.94;99623.20;78168;1303;3052261;-69
2024/02/01 11:57:17;;;;;;;34.70;18.40;;;;;;;5.26;76.13;99621.73;79307;1300;3013318;-66